createdAt,value
2019-05-25T00:00:26.596Z,32.46
2019-05-25T00:03:00.727Z,32.45
2019-05-25T00:05:34.834Z,32.44
2019-05-25T00:08:09.364Z,32.46
2019-05-25T00:10:43.485Z,32.45
2019-05-25T00:13:17.693Z,32.46
2019-05-25T00:15:52.140Z,32.46
2019-05-25T00:18:26.548Z,32.44
2019-05-25T00:21:00.670Z,32.44
2019-05-25T00:23:36.084Z,32.44
2019-05-25T00:26:10.001Z,32.45
2019-05-25T00:28:44.582Z,32.44
2019-05-25T00:31:19.769Z,32.43
2019-05-25T00:33:54.012Z,32.42
2019-05-25T00:36:28.126Z,32.42
2019-05-25T00:39:02.446Z,32.43
2019-05-25T00:41:36.558Z,32.41
2019-05-25T00:44:10.651Z,32.41
2019-05-25T00:46:44.567Z,32.42
2019-05-25T00:49:18.582Z,32.42
2019-05-25T00:51:52.751Z,32.41
2019-05-25T00:54:28.272Z,32.42
2019-05-25T00:57:02.788Z,32.42
2019-05-25T00:59:37.026Z,32.42
2019-05-25T01:02:11.084Z,32.42
2019-05-25T01:04:45.125Z,32.43
2019-05-25T01:07:19.349Z,32.41
2019-05-25T01:09:53.613Z,32.41
2019-05-25T01:12:27.632Z,32.40
2019-05-25T01:15:01.739Z,32.41
2019-05-25T01:17:35.939Z,32.42
2019-05-25T01:20:10.735Z,32.42
2019-05-25T01:22:44.816Z,32.42
2019-05-25T01:25:19.482Z,32.42
2019-05-25T01:27:53.475Z,32.43
2019-05-25T01:30:27.842Z,32.41
2019-05-25T01:33:01.928Z,32.41
2019-05-25T01:35:36.177Z,32.41
2019-05-25T01:38:10.038Z,32.41
2019-05-25T01:40:44.281Z,32.41
2019-05-25T01:43:18.092Z,32.42
2019-05-25T01:45:53.432Z,32.41
2019-05-25T01:48:27.520Z,32.41
2019-05-25T01:51:01.523Z,32.41
2019-05-25T01:53:35.368Z,32.40
2019-05-25T01:56:09.454Z,32.40
2019-05-25T01:58:43.424Z,32.41
2019-05-25T02:01:17.617Z,32.40
2019-05-25T02:03:51.625Z,32.41
2019-05-25T02:06:26.319Z,32.42
2019-05-25T02:09:00.441Z,32.41
2019-05-25T02:11:34.646Z,32.41
2019-05-25T02:14:09.749Z,32.41
2019-05-25T02:16:43.795Z,32.41
2019-05-25T02:19:17.729Z,32.40
2019-05-25T02:21:51.947Z,32.40
2019-05-25T02:24:25.796Z,32.40
2019-05-25T02:27:00.157Z,32.41
2019-05-25T02:29:34.178Z,32.41
2019-05-25T02:32:08.595Z,32.40
2019-05-25T02:34:42.597Z,32.41
2019-05-25T02:37:17.644Z,32.41
2019-05-25T02:39:51.780Z,32.41
2019-05-25T02:42:26.650Z,32.40
2019-05-25T02:45:00.700Z,32.41
2019-05-25T02:47:34.951Z,32.40
2019-05-25T02:50:09.960Z,32.41
2019-05-25T02:52:43.956Z,32.41
2019-05-25T02:55:33.167Z,32.40
2019-05-25T02:57:54.302Z,32.40
2019-05-25T03:00:35.442Z,32.41
2019-05-25T03:03:10.299Z,32.42
2019-05-25T03:05:44.436Z,32.42
2019-05-25T03:08:18.451Z,32.41
2019-05-25T03:10:54.882Z,32.41
2019-05-25T03:13:30.504Z,32.41
2019-05-25T03:16:04.657Z,32.41
2019-05-25T03:18:39.158Z,32.41
2019-05-25T03:21:13.191Z,32.41
2019-05-25T03:23:47.120Z,32.41
2019-05-25T03:26:21.425Z,32.41
2019-05-25T03:28:55.279Z,32.40
2019-05-25T03:31:29.418Z,32.40
2019-05-25T03:34:03.513Z,32.39
2019-05-25T03:36:37.831Z,32.40
2019-05-25T03:39:12.059Z,32.40
2019-05-25T03:41:46.225Z,32.39
2019-05-25T03:44:20.304Z,32.40
2019-05-25T03:46:54.313Z,32.40
2019-05-25T03:49:28.274Z,32.40
2019-05-25T03:52:02.437Z,32.40
2019-05-25T03:54:36.534Z,32.40
2019-05-25T03:57:10.367Z,32.41
2019-05-25T03:59:44.746Z,32.40
2019-05-25T04:02:18.871Z,32.40
2019-05-25T04:04:53.401Z,32.42
2019-05-25T04:07:27.512Z,32.40
2019-05-25T04:10:02.175Z,32.39
2019-05-25T04:12:36.407Z,32.41
2019-05-25T04:15:10.662Z,32.40
2019-05-25T04:17:44.949Z,32.40
2019-05-25T04:20:19.014Z,32.40
2019-05-25T04:22:52.904Z,32.40
2019-05-25T04:25:27.007Z,32.41
2019-05-25T04:28:01.059Z,32.40
2019-05-25T04:30:35.114Z,32.41
2019-05-25T04:33:09.261Z,32.41
2019-05-25T04:35:43.263Z,32.41
2019-05-25T04:38:17.168Z,32.40
2019-05-25T04:40:51.192Z,32.40
2019-05-25T04:43:25.024Z,32.40
2019-05-25T04:45:59.389Z,32.40
2019-05-25T04:48:33.517Z,32.42
2019-05-25T04:51:07.836Z,32.40
2019-05-25T04:53:41.924Z,32.41
2019-05-25T04:56:16.102Z,32.41
2019-05-25T04:58:50.104Z,32.40
2019-05-25T05:01:25.369Z,32.39
2019-05-25T05:04:00.925Z,32.40
2019-05-25T05:06:34.947Z,32.41
2019-05-25T05:09:10.671Z,32.41
2019-05-25T05:11:45.092Z,32.41
2019-05-25T05:14:19.070Z,32.41
2019-05-25T05:16:53.102Z,32.41
2019-05-25T05:19:26.886Z,32.41
2019-05-25T05:22:00.706Z,32.41
2019-05-25T05:24:34.863Z,32.43
2019-05-25T05:27:09.775Z,32.43
2019-05-25T05:29:43.844Z,32.42
2019-05-25T05:32:27.149Z,32.43
2019-05-25T05:34:54.238Z,32.42
2019-05-25T05:37:29.013Z,32.43
2019-05-25T05:40:03.645Z,32.43
2019-05-25T05:42:40.443Z,32.44
2019-05-25T05:45:15.742Z,32.45
2019-05-25T05:47:52.569Z,32.45
2019-05-25T05:50:26.959Z,32.44
2019-05-25T05:53:03.320Z,32.45
2019-05-25T05:55:37.585Z,32.44
2019-05-25T05:58:11.600Z,32.45
2019-05-25T06:00:45.843Z,32.45
2019-05-25T06:03:20.190Z,32.45
2019-05-25T06:05:54.292Z,32.46
2019-05-25T06:08:28.406Z,32.46
2019-05-25T06:11:02.622Z,32.46
2019-05-25T06:13:38.202Z,32.46
2019-05-25T06:16:12.391Z,32.45
2019-05-25T06:18:46.310Z,32.46
2019-05-25T06:21:20.441Z,32.45
2019-05-25T06:23:54.595Z,32.46
2019-05-25T06:26:29.124Z,32.46
2019-05-25T06:29:03.473Z,32.47
2019-05-25T06:31:37.831Z,32.48
2019-05-25T06:34:11.988Z,32.48
2019-05-25T06:36:46.683Z,32.48
2019-05-25T06:39:20.855Z,32.48
2019-05-25T06:41:55.173Z,32.48
2019-05-25T06:44:29.641Z,32.49
2019-05-25T06:47:04.062Z,32.50
2019-05-25T06:49:38.162Z,32.50
2019-05-25T06:52:12.272Z,32.50
2019-05-25T06:54:46.440Z,32.49
2019-05-25T06:57:20.647Z,32.50
2019-05-25T06:59:55.017Z,32.50
2019-05-25T07:02:29.357Z,32.51
2019-05-25T07:05:03.798Z,32.50
2019-05-25T07:07:38.100Z,32.51
2019-05-25T07:10:12.495Z,32.52
2019-05-25T07:12:46.990Z,32.52
2019-05-25T07:15:21.796Z,32.52
2019-05-25T07:17:56.089Z,32.53
2019-05-25T07:20:30.400Z,32.53
2019-05-25T07:23:04.516Z,32.54
2019-05-25T07:25:38.763Z,32.55
2019-05-25T07:28:12.918Z,32.55
2019-05-25T07:30:47.107Z,32.55
2019-05-25T07:33:21.060Z,32.54
2019-05-25T07:35:55.422Z,32.55
2019-05-25T07:38:29.604Z,32.56
2019-05-25T07:41:04.371Z,32.56
2019-05-25T07:43:38.418Z,32.57
2019-05-25T07:46:16.491Z,32.56
2019-05-25T07:48:50.491Z,32.57
2019-05-25T07:51:24.821Z,32.57
2019-05-25T07:53:59.268Z,32.58
2019-05-25T07:56:33.365Z,32.58
2019-05-25T07:59:08.107Z,32.60
2019-05-25T08:01:42.407Z,32.59
2019-05-25T08:04:16.864Z,32.60
2019-05-25T08:06:50.990Z,32.61
2019-05-25T08:09:25.353Z,32.62
2019-05-25T08:11:59.641Z,32.62
2019-05-25T08:14:33.934Z,32.62
2019-05-25T08:17:08.943Z,32.62
2019-05-25T08:19:43.294Z,32.63
2019-05-25T08:22:17.597Z,32.63
2019-05-25T08:24:52.754Z,32.63
2019-05-25T08:27:27.083Z,32.65
2019-05-25T08:30:01.551Z,32.65
2019-05-25T08:32:35.609Z,32.66
2019-05-25T08:35:14.209Z,32.66
2019-05-25T08:37:48.284Z,32.67
2019-05-25T08:40:23.245Z,32.66
2019-05-25T08:42:57.487Z,32.67
2019-05-25T08:45:31.607Z,32.69
2019-05-25T08:48:06.388Z,32.69
2019-05-25T08:50:41.010Z,32.70
2019-05-25T08:53:15.196Z,32.70
2019-05-25T08:55:49.639Z,32.70
2019-05-25T08:58:23.685Z,32.71
2019-05-25T09:00:58.172Z,32.72
2019-05-25T09:03:32.443Z,32.72
2019-05-25T09:06:06.420Z,32.72
2019-05-25T09:08:40.616Z,32.73
2019-05-25T09:11:14.588Z,32.74
2019-05-25T09:13:48.617Z,32.75
2019-05-25T09:16:23.017Z,32.74
2019-05-25T09:18:57.090Z,32.76
2019-05-25T09:21:31.546Z,32.76
2019-05-25T09:24:06.012Z,32.77
2019-05-25T09:26:40.295Z,32.77
2019-05-25T09:29:14.529Z,32.78
2019-05-25T09:31:48.764Z,32.78
2019-05-25T09:34:24.188Z,32.79
2019-05-25T09:37:00.843Z,32.79
2019-05-25T09:39:37.432Z,32.80
2019-05-25T09:42:14.007Z,32.81
2019-05-25T09:44:49.626Z,32.81
2019-05-25T09:47:23.896Z,32.80
2019-05-25T09:50:00.770Z,32.81
2019-05-25T09:52:34.911Z,32.83
2019-05-25T09:55:09.982Z,32.84
2019-05-25T09:57:44.217Z,32.85
2019-05-25T10:00:18.834Z,32.86
2019-05-25T10:02:53.051Z,32.88
2019-05-25T10:05:27.446Z,32.88
2019-05-25T10:08:01.402Z,32.88
2019-05-25T10:10:35.526Z,32.88
2019-05-25T10:13:09.445Z,32.88
2019-05-25T10:15:43.901Z,32.90
2019-05-25T10:18:17.875Z,32.91
2019-05-25T10:20:52.408Z,32.91
2019-05-25T10:23:27.796Z,32.92
2019-05-25T10:26:02.078Z,32.92
2019-05-25T10:28:36.106Z,32.93
2019-05-25T10:31:10.410Z,32.94
2019-05-25T10:33:45.377Z,32.94
2019-05-25T10:36:19.811Z,32.95
2019-05-25T10:38:54.771Z,32.96
2019-05-25T10:41:29.272Z,32.96
2019-05-25T10:44:03.720Z,32.97
2019-05-25T10:46:37.720Z,32.97
2019-05-25T10:49:11.988Z,32.98
2019-05-25T10:51:46.244Z,32.99
2019-05-25T10:54:20.477Z,32.99
2019-05-25T10:56:54.424Z,33.01
2019-05-25T10:59:28.750Z,33.01
2019-05-25T11:02:03.000Z,33.03
2019-05-25T11:04:37.012Z,33.02
2019-05-25T11:07:11.208Z,33.04
2019-05-25T11:09:45.419Z,33.05
2019-05-25T11:12:19.882Z,33.05
2019-05-25T11:14:53.962Z,33.05
2019-05-25T11:17:28.398Z,33.08
2019-05-25T11:20:02.537Z,33.08
2019-05-25T11:22:36.836Z,33.09
2019-05-25T11:25:11.138Z,33.10
2019-05-25T11:27:45.535Z,33.10
2019-05-25T11:30:19.535Z,33.11
2019-05-25T11:32:53.890Z,33.12
2019-05-25T11:35:28.186Z,33.13
2019-05-25T11:38:02.407Z,33.13
2019-05-25T11:40:36.262Z,33.14
2019-05-25T11:43:10.552Z,33.15
2019-05-25T11:45:45.490Z,33.15
2019-05-25T11:48:19.734Z,33.16
2019-05-25T11:50:53.991Z,33.16
2019-05-25T11:53:28.112Z,33.18
2019-05-25T11:56:02.154Z,33.19
2019-05-25T11:58:46.902Z,33.19
2019-05-25T12:01:12.649Z,33.20
2019-05-25T12:03:46.676Z,33.22
2019-05-25T12:06:20.834Z,33.23
2019-05-25T12:08:54.918Z,33.24
2019-05-25T12:11:28.827Z,33.24
2019-05-25T12:14:02.849Z,33.25
2019-05-25T12:16:36.842Z,33.25
2019-05-25T12:19:14.718Z,33.26
2019-05-25T12:21:47.226Z,33.27
2019-05-25T12:24:33.931Z,33.27
2019-05-25T12:27:08.031Z,33.28
2019-05-25T12:29:42.243Z,33.28
2019-05-25T12:32:16.021Z,33.29
2019-05-25T12:34:50.213Z,33.30
2019-05-25T12:37:24.378Z,33.30
2019-05-25T12:39:58.788Z,33.32
2019-05-25T12:42:32.692Z,33.32
2019-05-25T12:45:08.218Z,33.34
2019-05-25T12:47:42.448Z,33.34
2019-05-25T12:50:17.689Z,33.34
2019-05-25T12:52:51.979Z,33.36
2019-05-25T12:55:26.040Z,33.36
2019-05-25T12:58:00.293Z,33.37
2019-05-25T13:00:34.350Z,33.38
2019-05-25T13:03:10.931Z,33.38
2019-05-25T13:05:44.347Z,33.39
2019-05-25T13:08:18.728Z,33.39
2019-05-25T13:10:52.842Z,33.42
2019-05-25T13:13:27.019Z,33.42
2019-05-25T13:16:00.984Z,33.41
2019-05-25T13:18:35.108Z,33.43
2019-05-25T13:21:09.038Z,33.44
2019-05-25T13:23:43.479Z,33.44
2019-05-25T13:26:17.645Z,33.45
2019-05-25T13:28:51.789Z,33.45
2019-05-25T13:31:25.873Z,33.47
2019-05-25T13:34:00.281Z,33.46
2019-05-25T13:36:34.365Z,33.47
2019-05-25T13:39:09.557Z,33.49
2019-05-25T13:41:43.565Z,33.49
2019-05-25T13:44:17.666Z,33.49
2019-05-25T13:46:51.655Z,33.51
2019-05-25T13:49:26.728Z,33.51
2019-05-25T13:52:02.038Z,33.51
2019-05-25T13:54:36.119Z,33.53
2019-05-25T13:57:10.130Z,33.54
2019-05-25T13:59:44.341Z,33.55
2019-05-25T14:02:18.499Z,33.56
2019-05-25T14:04:52.609Z,33.56
2019-05-25T14:07:26.524Z,33.56
2019-05-25T14:10:00.747Z,33.57
2019-05-25T14:12:34.816Z,33.57
2019-05-25T14:15:09.685Z,33.59
2019-05-25T14:17:43.541Z,33.59
2019-05-25T14:20:18.230Z,33.60
2019-05-25T14:22:52.222Z,33.60
2019-05-25T14:25:26.481Z,33.61
2019-05-25T14:28:00.674Z,33.63
2019-05-25T14:30:35.099Z,33.62
2019-05-25T14:33:09.072Z,33.63
2019-05-25T14:35:43.755Z,33.63
2019-05-25T14:38:17.983Z,33.64
2019-05-25T14:40:52.146Z,33.65
2019-05-25T14:43:26.181Z,33.66
2019-05-25T14:46:00.154Z,33.66
2019-05-25T14:48:34.416Z,33.68
2019-05-25T14:51:08.569Z,33.67
2019-05-25T14:53:42.628Z,33.68
2019-05-25T14:56:16.696Z,33.69
2019-05-25T14:58:50.620Z,33.70
2019-05-25T15:01:24.749Z,33.71
2019-05-25T15:03:58.732Z,33.72
2019-05-25T15:06:33.267Z,33.72
2019-05-25T15:09:09.241Z,33.72
2019-05-25T15:11:43.140Z,33.73
2019-05-25T15:14:17.393Z,33.74
2019-05-25T15:16:51.496Z,33.74
2019-05-25T15:19:26.759Z,33.75
2019-05-25T15:22:00.789Z,33.75
2019-05-25T15:24:35.097Z,33.75
2019-05-25T15:27:09.210Z,33.76
2019-05-25T15:29:43.360Z,33.77
2019-05-25T15:32:20.484Z,33.77
2019-05-25T15:34:53.410Z,33.77
2019-05-25T15:37:27.539Z,33.77
2019-05-25T15:40:01.559Z,33.78
2019-05-25T15:42:35.518Z,33.79
2019-05-25T15:45:10.101Z,33.80
2019-05-25T15:47:43.986Z,33.80
2019-05-25T15:50:18.224Z,33.81
2019-05-25T15:52:52.284Z,33.80
2019-05-25T15:55:26.267Z,33.81
2019-05-25T15:58:00.686Z,33.82
2019-05-25T16:00:48.724Z,33.81
2019-05-25T16:03:23.361Z,33.82
2019-05-25T16:05:57.767Z,33.83
2019-05-25T16:08:31.993Z,33.83
2019-05-25T16:11:06.432Z,33.84
2019-05-25T16:13:40.446Z,33.83
2019-05-25T16:16:14.404Z,33.85
2019-05-25T16:18:48.510Z,33.84
2019-05-25T16:21:22.639Z,33.85
2019-05-25T16:23:56.652Z,33.86
2019-05-25T16:26:44.921Z,33.87
2019-05-25T16:29:06.769Z,33.88
2019-05-25T16:31:40.995Z,33.87
2019-05-25T16:34:14.954Z,33.88
2019-05-25T16:36:48.860Z,33.89
2019-05-25T16:39:23.008Z,33.89
2019-05-25T16:41:57.111Z,33.89
2019-05-25T16:44:31.231Z,33.90
2019-05-25T16:47:05.282Z,33.90
2019-05-25T16:49:39.668Z,33.89
2019-05-25T16:52:13.699Z,33.90
2019-05-25T16:54:48.113Z,33.90
2019-05-25T16:57:22.380Z,33.91
2019-05-25T17:00:00.219Z,33.91
2019-05-25T17:02:34.281Z,33.91
2019-05-25T17:05:09.170Z,33.92
2019-05-25T17:07:43.299Z,33.92
2019-05-25T17:10:17.641Z,33.92
2019-05-25T17:12:51.729Z,33.92
2019-05-25T17:15:25.863Z,33.92
2019-05-25T17:18:04.392Z,33.92
2019-05-25T17:20:35.725Z,33.92
2019-05-25T17:23:09.797Z,33.93
2019-05-25T17:25:43.734Z,33.92
2019-05-25T17:28:17.824Z,33.93
2019-05-25T17:30:51.995Z,33.94
2019-05-25T17:33:26.213Z,33.94
2019-05-25T17:36:00.348Z,33.94
2019-05-25T17:38:34.590Z,33.94
2019-05-25T17:41:08.587Z,33.95
2019-05-25T17:43:42.774Z,33.94
2019-05-25T17:46:16.750Z,33.95
2019-05-25T17:48:51.041Z,33.96
2019-05-25T17:51:26.509Z,33.96
2019-05-25T17:54:00.526Z,33.96
2019-05-25T17:56:34.869Z,33.95
2019-05-25T17:59:09.025Z,33.97
2019-05-25T18:01:44.249Z,33.96
2019-05-25T18:04:18.257Z,33.97
2019-05-25T18:06:52.256Z,33.97
2019-05-25T18:09:26.289Z,33.96
2019-05-25T18:12:00.625Z,33.97
2019-05-25T18:14:34.499Z,33.98
2019-05-25T18:17:08.778Z,33.97
2019-05-25T18:19:42.966Z,33.98
2019-05-25T18:22:17.002Z,33.98
2019-05-25T18:24:51.327Z,33.98
2019-05-25T18:27:25.577Z,33.99
2019-05-25T18:29:59.798Z,33.99
2019-05-25T18:32:33.882Z,33.98
2019-05-25T18:35:08.301Z,33.99
2019-05-25T18:37:42.297Z,33.99
2019-05-25T18:40:16.955Z,34.00
2019-05-25T18:42:51.007Z,34.00
2019-05-25T18:45:25.204Z,34.00
2019-05-25T18:47:59.464Z,33.98
2019-05-25T18:50:33.541Z,33.99
2019-05-25T18:53:07.801Z,34.01
2019-05-25T18:55:42.358Z,34.00
2019-05-25T18:58:16.315Z,34.00
2019-05-25T19:00:50.403Z,34.00
2019-05-25T19:03:24.417Z,34.00
2019-05-25T19:05:58.397Z,34.00
2019-05-25T19:08:32.374Z,34.00
2019-05-25T19:11:06.218Z,34.00
2019-05-25T19:13:40.498Z,34.00
2019-05-25T19:16:14.483Z,34.01
2019-05-25T19:18:48.644Z,34.01
2019-05-25T19:21:22.710Z,34.01
2019-05-25T19:23:56.628Z,34.01
2019-05-25T19:26:30.668Z,34.00
2019-05-25T19:29:05.865Z,34.01
2019-05-25T19:31:39.891Z,34.00
2019-05-25T19:34:14.126Z,34.01
2019-05-25T19:36:48.153Z,34.01
2019-05-25T19:39:23.260Z,34.01
2019-05-25T19:41:57.419Z,34.01
2019-05-25T19:44:31.229Z,34.02
2019-05-25T19:47:05.420Z,34.02
2019-05-25T19:49:39.504Z,34.02
2019-05-25T19:52:13.448Z,34.02
2019-05-25T19:54:47.317Z,34.01
2019-05-25T19:57:21.365Z,34.01
2019-05-25T19:59:55.462Z,34.01
2019-05-25T20:02:29.465Z,34.01
2019-05-25T20:05:15.771Z,34.02
2019-05-25T20:07:39.443Z,34.02
2019-05-25T20:10:14.545Z,34.02
2019-05-25T20:12:48.734Z,34.01
2019-05-25T20:15:22.906Z,34.01
2019-05-25T20:17:56.856Z,34.00
2019-05-25T20:20:31.070Z,34.01
2019-05-25T20:23:05.083Z,34.01
2019-05-25T20:25:39.004Z,34.01
2019-05-25T20:28:13.068Z,34.01
2019-05-25T20:30:46.861Z,34.02
2019-05-25T20:33:27.488Z,34.01
2019-05-25T20:35:56.551Z,34.02
2019-05-25T20:38:30.343Z,34.01
2019-05-25T20:41:04.664Z,34.02
2019-05-25T20:43:38.601Z,34.02
2019-05-25T20:46:13.002Z,34.02
2019-05-25T20:48:47.054Z,34.02
2019-05-25T20:51:21.045Z,34.02
2019-05-25T20:53:56.767Z,34.01
2019-05-25T20:56:30.877Z,34.02
2019-05-25T20:59:04.937Z,34.01
2019-05-25T21:01:39.176Z,34.01
2019-05-25T21:04:13.413Z,34.02
2019-05-25T21:06:47.342Z,34.01
2019-05-25T21:09:21.698Z,34.02
2019-05-25T21:11:56.432Z,34.02
2019-05-25T21:14:31.133Z,34.01
2019-05-25T21:17:05.228Z,34.01
2019-05-25T21:19:39.566Z,34.01
2019-05-25T21:22:13.637Z,34.01
2019-05-25T21:24:47.833Z,34.01
2019-05-25T21:27:21.854Z,34.01
2019-05-25T21:29:55.895Z,34.00
2019-05-25T21:32:30.026Z,34.00
2019-05-25T21:35:04.102Z,34.00
2019-05-25T21:37:38.116Z,33.98
2019-05-25T21:40:13.477Z,33.98
2019-05-25T21:42:47.337Z,33.98
2019-05-25T21:45:21.942Z,33.99
2019-05-25T21:47:56.578Z,34.00
2019-05-25T21:50:32.034Z,34.00
2019-05-25T21:53:06.183Z,33.99
2019-05-25T21:55:39.989Z,33.98
2019-05-25T21:58:14.074Z,33.97
2019-05-25T22:00:48.472Z,33.97
2019-05-25T22:03:22.684Z,33.96
2019-05-25T22:05:56.793Z,33.97
2019-05-25T22:08:30.982Z,33.96
2019-05-25T22:11:05.160Z,33.96
2019-05-25T22:13:38.974Z,33.96
2019-05-25T22:16:13.193Z,33.95
2019-05-25T22:18:47.035Z,33.95
2019-05-25T22:21:21.260Z,33.96
2019-05-25T22:23:55.403Z,33.95
2019-05-25T22:26:29.694Z,33.95
2019-05-25T22:29:04.252Z,33.95
2019-05-25T22:31:38.372Z,33.95
2019-05-25T22:34:12.515Z,33.94
2019-05-25T22:36:46.488Z,33.95
2019-05-25T22:39:20.540Z,33.95
2019-05-25T22:41:54.780Z,33.94
2019-05-25T22:44:30.068Z,33.94
2019-05-25T22:47:05.095Z,33.94
2019-05-25T22:49:39.309Z,33.94
2019-05-25T22:52:13.435Z,33.94
2019-05-25T22:54:47.512Z,33.93
2019-05-25T22:57:21.690Z,33.93
2019-05-25T22:59:56.145Z,33.93
2019-05-25T23:02:30.365Z,33.92
2019-05-25T23:05:07.097Z,33.92
2019-05-25T23:07:40.473Z,33.93
2019-05-25T23:10:14.664Z,33.92
2019-05-25T23:12:48.732Z,33.92
2019-05-25T23:15:22.975Z,33.91
2019-05-25T23:17:56.825Z,33.91
2019-05-25T23:20:30.636Z,33.92
2019-05-25T23:23:04.851Z,33.91
2019-05-25T23:25:38.612Z,33.91
2019-05-25T23:28:12.421Z,33.92
2019-05-25T23:30:47.269Z,33.92
2019-05-25T23:33:21.454Z,33.91
2019-05-25T23:35:55.534Z,33.90
2019-05-25T23:38:29.712Z,33.90
2019-05-25T23:41:03.674Z,33.89
2019-05-25T23:43:37.748Z,33.89
2019-05-25T23:46:11.566Z,33.90
2019-05-25T23:48:45.735Z,33.89
2019-05-25T23:51:19.705Z,33.89
2019-05-25T23:53:53.891Z,33.89
2019-05-25T23:56:27.963Z,33.88
2019-05-25T23:59:01.836Z,33.88
